sensor_id;sensor_type;location;lat;lon;timestamp;P1;durP1;ratioP1;P2;durP2;ratioP2
23304;SDS011;11821;51.456;8.844;2022-09-29T00:00:34;7.32;;;6.63;;
23304;SDS011;11821;51.456;8.844;2022-09-29T00:03:00;7.60;;;6.53;;
23304;SDS011;11821;51.456;8.844;2022-09-29T00:05:27;12.70;;;8.18;;
23304;SDS011;11821;51.456;8.844;2022-09-29T00:07:53;8.43;;;7.00;;
23304;SDS011;11821;51.456;8.844;2022-09-29T00:10:19;7.60;;;6.90;;
23304;SDS011;11821;51.456;8.844;2022-09-29T00:12:45;11.52;;;7.13;;
23304;SDS011;11821;51.456;8.844;2022-09-29T00:15:12;11.38;;;7.10;;
23304;SDS011;11821;51.456;8.844;2022-09-29T00:17:38;7.90;;;7.10;;
23304;SDS011;11821;51.456;8.844;2022-09-29T00:20:05;7.13;;;6.45;;
23304;SDS011;11821;51.456;8.844;2022-09-29T00:22:31;8.88;;;6.55;;
23304;SDS011;11821;51.456;8.844;2022-09-29T00:24:58;8.85;;;7.07;;
23304;SDS011;11821;51.456;8.844;2022-09-29T00:27:24;8.52;;;7.35;;
23304;SDS011;11821;51.456;8.844;2022-09-29T00:29:50;11.30;;;6.80;;
23304;SDS011;11821;51.456;8.844;2022-09-29T00:32:17;10.77;;;6.70;;
23304;SDS011;11821;51.456;8.844;2022-09-29T00:34:43;8.38;;;7.25;;
23304;SDS011;11821;51.456;8.844;2022-09-29T00:37:09;7.78;;;6.97;;
23304;SDS011;11821;51.456;8.844;2022-09-29T00:39:35;9.13;;;6.85;;
23304;SDS011;11821;51.456;8.844;2022-09-29T00:42:02;8.27;;;7.18;;
23304;SDS011;11821;51.456;8.844;2022-09-29T00:47:20;11.00;;;7.55;;
23304;SDS011;11821;51.456;8.844;2022-09-29T00:49:55;8.60;;;7.38;;
23304;SDS011;11821;51.456;8.844;2022-09-29T00:52:27;11.80;;;7.68;;
23304;SDS011;11821;51.456;8.844;2022-09-29T00:55:04;8.95;;;6.50;;
23304;SDS011;11821;51.456;8.844;2022-09-29T00:57:40;8.23;;;6.68;;
23304;SDS011;11821;51.456;8.844;2022-09-29T01:00:13;10.13;;;7.35;;
23304;SDS011;11821;51.456;8.844;2022-09-29T01:06:25;8.82;;;6.38;;
23304;SDS011;11821;51.456;8.844;2022-09-29T01:08:52;7.95;;;7.15;;
23304;SDS011;11821;51.456;8.844;2022-09-29T01:11:24;7.07;;;6.38;;
23304;SDS011;11821;51.456;8.844;2022-09-29T01:13:51;14.98;;;7.32;;
23304;SDS011;11821;51.456;8.844;2022-09-29T01:16:19;10.57;;;6.80;;
23304;SDS011;11821;51.456;8.844;2022-09-29T01:18:45;7.53;;;6.82;;
23304;SDS011;11821;51.456;8.844;2022-09-29T01:31:55;8.75;;;7.38;;
23304;SDS011;11821;51.456;8.844;2022-09-29T01:34:33;6.70;;;5.80;;
23304;SDS011;11821;51.456;8.844;2022-09-29T01:42:21;11.55;;;5.88;;
23304;SDS011;11821;51.456;8.844;2022-09-29T01:45:05;7.47;;;5.85;;
23304;SDS011;11821;51.456;8.844;2022-09-29T01:47:35;7.40;;;6.25;;
23304;SDS011;11821;51.456;8.844;2022-09-29T01:50:08;7.50;;;5.93;;
23304;SDS011;11821;51.456;8.844;2022-09-29T01:52:58;7.25;;;5.80;;
23304;SDS011;11821;51.456;8.844;2022-09-29T01:55:28;9.35;;;6.03;;
23304;SDS011;11821;51.456;8.844;2022-09-29T01:57:58;6.88;;;6.22;;
23304;SDS011;11821;51.456;8.844;2022-09-29T02:00:27;7.47;;;6.32;;
23304;SDS011;11821;51.456;8.844;2022-09-29T02:02:59;6.55;;;5.65;;
23304;SDS011;11821;51.456;8.844;2022-09-29T02:05:45;6.40;;;5.80;;
23304;SDS011;11821;51.456;8.844;2022-09-29T02:11:21;7.20;;;5.72;;
23304;SDS011;11821;51.456;8.844;2022-09-29T02:16:56;7.65;;;5.80;;
23304;SDS011;11821;51.456;8.844;2022-09-29T02:19:56;6.57;;;5.72;;
23304;SDS011;11821;51.456;8.844;2022-09-29T02:22:23;8.90;;;6.10;;
23304;SDS011;11821;51.456;8.844;2022-09-29T02:24:53;6.65;;;5.03;;
23304;SDS011;11821;51.456;8.844;2022-09-29T02:27:24;5.50;;;4.90;;
23304;SDS011;11821;51.456;8.844;2022-09-29T02:29:51;6.70;;;4.50;;
23304;SDS011;11821;51.456;8.844;2022-09-29T02:32:18;4.90;;;4.50;;
23304;SDS011;11821;51.456;8.844;2022-09-29T02:34:45;7.05;;;4.70;;
23304;SDS011;11821;51.456;8.844;2022-09-29T02:37:32;6.28;;;4.45;;
23304;SDS011;11821;51.456;8.844;2022-09-29T02:45:20;4.82;;;4.05;;
23304;SDS011;11821;51.456;8.844;2022-09-29T03:01:50;6.28;;;5.68;;
23304;SDS011;11821;51.456;8.844;2022-09-29T03:04:18;6.20;;;5.60;;
23304;SDS011;11821;51.456;8.844;2022-09-29T03:06:46;6.75;;;6.05;;
23304;SDS011;11821;51.456;8.844;2022-09-29T03:09:13;5.80;;;5.20;;
23304;SDS011;11821;51.456;8.844;2022-09-29T03:11:39;6.47;;;5.45;;
23304;SDS011;11821;51.456;8.844;2022-09-29T03:14:06;5.60;;;5.10;;
23304;SDS011;11821;51.456;8.844;2022-09-29T03:16:32;6.88;;;6.28;;
23304;SDS011;11821;51.456;8.844;2022-09-29T03:19:00;13.30;;;6.55;;
23304;SDS011;11821;51.456;8.844;2022-09-29T03:21:26;6.60;;;5.45;;
23304;SDS011;11821;51.456;8.844;2022-09-29T03:23:52;6.57;;;5.63;;
23304;SDS011;11821;51.456;8.844;2022-09-29T03:26:19;8.30;;;6.80;;
23304;SDS011;11821;51.456;8.844;2022-09-29T03:28:45;6.40;;;5.80;;
23304;SDS011;11821;51.456;8.844;2022-09-29T03:31:11;5.45;;;4.95;;
23304;SDS011;11821;51.456;8.844;2022-09-29T03:33:38;7.07;;;5.97;;
23304;SDS011;11821;51.456;8.844;2022-09-29T03:36:05;6.22;;;5.63;;
23304;SDS011;11821;51.456;8.844;2022-09-29T03:38:32;5.90;;;5.40;;
23304;SDS011;11821;51.456;8.844;2022-09-29T03:40:58;5.82;;;5.18;;
23304;SDS011;11821;51.456;8.844;2022-09-29T03:43:24;5.70;;;5.20;;
23304;SDS011;11821;51.456;8.844;2022-09-29T03:45:52;5.28;;;4.80;;
23304;SDS011;11821;51.456;8.844;2022-09-29T03:48:20;5.43;;;4.78;;
23304;SDS011;11821;51.456;8.844;2022-09-29T03:50:47;6.40;;;5.50;;
23304;SDS011;11821;51.456;8.844;2022-09-29T03:53:14;6.80;;;5.40;;
23304;SDS011;11821;51.456;8.844;2022-09-29T03:55:45;6.05;;;5.45;;
23304;SDS011;11821;51.456;8.844;2022-09-29T03:58:15;10.13;;;6.63;;
23304;SDS011;11821;51.456;8.844;2022-09-29T04:00:42;6.50;;;5.90;;
23304;SDS011;11821;51.456;8.844;2022-09-29T04:03:09;6.57;;;5.90;;
23304;SDS011;11821;51.456;8.844;2022-09-29T04:05:36;8.07;;;5.85;;
23304;SDS011;11821;51.456;8.844;2022-09-29T04:08:04;7.50;;;5.40;;
23304;SDS011;11821;51.456;8.844;2022-09-29T04:10:37;9.45;;;6.75;;
23304;SDS011;11821;51.456;8.844;2022-09-29T04:13:04;8.20;;;6.82;;
23304;SDS011;11821;51.456;8.844;2022-09-29T04:15:31;8.40;;;6.50;;
23304;SDS011;11821;51.456;8.844;2022-09-29T04:17:57;7.55;;;5.78;;
23304;SDS011;11821;51.456;8.844;2022-09-29T04:20:24;6.85;;;6.15;;
23304;SDS011;11821;51.456;8.844;2022-09-29T04:22:50;6.15;;;5.45;;
23304;SDS011;11821;51.456;8.844;2022-09-29T04:25:17;6.72;;;6.03;;
23304;SDS011;11821;51.456;8.844;2022-09-29T04:27:43;9.75;;;6.32;;
23304;SDS011;11821;51.456;8.844;2022-09-29T04:30:10;5.97;;;5.40;;
23304;SDS011;11821;51.456;8.844;2022-09-29T04:32:36;6.30;;;5.70;;
23304;SDS011;11821;51.456;8.844;2022-09-29T04:35:03;6.47;;;5.22;;
23304;SDS011;11821;51.456;8.844;2022-09-29T04:37:30;6.32;;;5.72;;
23304;SDS011;11821;51.456;8.844;2022-09-29T04:39:56;6.32;;;5.53;;
23304;SDS011;11821;51.456;8.844;2022-09-29T04:42:22;4.53;;;4.13;;
23304;SDS011;11821;51.456;8.844;2022-09-29T04:44:48;6.13;;;5.53;;
23304;SDS011;11821;51.456;8.844;2022-09-29T04:47:15;6.60;;;5.25;;
23304;SDS011;11821;51.456;8.844;2022-09-29T04:49:41;7.00;;;5.22;;
23304;SDS011;11821;51.456;8.844;2022-09-29T04:52:09;7.75;;;5.07;;
23304;SDS011;11821;51.456;8.844;2022-09-29T04:54:36;4.97;;;4.57;;
23304;SDS011;11821;51.456;8.844;2022-09-29T04:57:03;5.32;;;4.80;;
23304;SDS011;11821;51.456;8.844;2022-09-29T04:59:29;8.95;;;5.22;;
23304;SDS011;11821;51.456;8.844;2022-09-29T05:01:55;6.38;;;5.53;;
23304;SDS011;11821;51.456;8.844;2022-09-29T05:04:22;8.20;;;4.93;;
23304;SDS011;11821;51.456;8.844;2022-09-29T05:06:48;6.20;;;5.25;;
23304;SDS011;11821;51.456;8.844;2022-09-29T05:09:14;9.18;;;5.45;;
23304;SDS011;11821;51.456;8.844;2022-09-29T05:11:41;5.85;;;5.10;;
23304;SDS011;11821;51.456;8.844;2022-09-29T05:14:07;5.63;;;5.03;;
23304;SDS011;11821;51.456;8.844;2022-09-29T05:16:33;5.60;;;5.10;;
23304;SDS011;11821;51.456;8.844;2022-09-29T05:18:59;5.60;;;5.10;;
23304;SDS011;11821;51.456;8.844;2022-09-29T05:21:26;12.23;;;5.93;;
23304;SDS011;11821;51.456;8.844;2022-09-29T05:23:53;6.47;;;4.85;;
23304;SDS011;11821;51.456;8.844;2022-09-29T05:26:20;6.47;;;4.45;;
23304;SDS011;11821;51.456;8.844;2022-09-29T05:28:46;5.20;;;4.40;;
23304;SDS011;11821;51.456;8.844;2022-09-29T05:31:13;5.35;;;4.85;;
23304;SDS011;11821;51.456;8.844;2022-09-29T05:33:40;5.45;;;4.95;;
23304;SDS011;11821;51.456;8.844;2022-09-29T05:36:07;8.00;;;5.03;;
23304;SDS011;11821;51.456;8.844;2022-09-29T05:38:34;5.28;;;4.78;;
23304;SDS011;11821;51.456;8.844;2022-09-29T05:41:05;9.23;;;5.50;;
23304;SDS011;11821;51.456;8.844;2022-09-29T05:43:33;6.63;;;6.00;;
23304;SDS011;11821;51.456;8.844;2022-09-29T05:46:03;6.38;;;5.47;;
23304;SDS011;11821;51.456;8.844;2022-09-29T05:48:30;8.80;;;5.70;;
23304;SDS011;11821;51.456;8.844;2022-09-29T05:50:57;6.10;;;5.40;;
23304;SDS011;11821;51.456;8.844;2022-09-29T05:53:25;6.82;;;4.97;;
23304;SDS011;11821;51.456;8.844;2022-09-29T05:55:51;4.80;;;4.25;;
23304;SDS011;11821;51.456;8.844;2022-09-29T05:58:17;6.75;;;5.40;;
23304;SDS011;11821;51.456;8.844;2022-09-29T06:00:45;6.28;;;5.57;;
23304;SDS011;11821;51.456;8.844;2022-09-29T06:03:11;6.72;;;5.25;;
23304;SDS011;11821;51.456;8.844;2022-09-29T06:05:37;6.53;;;5.68;;
23304;SDS011;11821;51.456;8.844;2022-09-29T06:08:04;9.35;;;5.22;;
23304;SDS011;11821;51.456;8.844;2022-09-29T06:10:31;6.82;;;5.03;;
23304;SDS011;11821;51.456;8.844;2022-09-29T06:12:58;5.68;;;5.00;;
23304;SDS011;11821;51.456;8.844;2022-09-29T06:15:27;5.40;;;4.40;;
23304;SDS011;11821;51.456;8.844;2022-09-29T06:17:54;7.82;;;6.10;;
23304;SDS011;11821;51.456;8.844;2022-09-29T06:20:21;8.32;;;6.78;;
23304;SDS011;11821;51.456;8.844;2022-09-29T06:22:48;5.47;;;4.78;;
23304;SDS011;11821;51.456;8.844;2022-09-29T06:25:16;6.55;;;5.95;;
23304;SDS011;11821;51.456;8.844;2022-09-29T06:27:42;6.55;;;5.78;;
23304;SDS011;11821;51.456;8.844;2022-09-29T06:30:08;6.55;;;5.53;;
23304;SDS011;11821;51.456;8.844;2022-09-29T06:32:37;7.40;;;5.93;;
23304;SDS011;11821;51.456;8.844;2022-09-29T06:35:04;6.13;;;5.18;;
23304;SDS011;11821;51.456;8.844;2022-09-29T06:38:09;7.18;;;5.63;;
23304;SDS011;11821;51.456;8.844;2022-09-29T06:40:36;7.75;;;5.32;;
23304;SDS011;11821;51.456;8.844;2022-09-29T06:43:02;6.90;;;5.63;;
23304;SDS011;11821;51.456;8.844;2022-09-29T06:45:28;11.93;;;6.13;;
23304;SDS011;11821;51.456;8.844;2022-09-29T06:47:58;18.85;;;12.48;;
23304;SDS011;11821;51.456;8.844;2022-09-29T06:50:25;17.27;;;11.73;;
23304;SDS011;11821;51.456;8.844;2022-09-29T06:52:51;10.27;;;7.28;;
23304;SDS011;11821;51.456;8.844;2022-09-29T06:55:17;13.90;;;10.57;;
23304;SDS011;11821;51.456;8.844;2022-09-29T06:57:44;10.15;;;5.78;;
23304;SDS011;11821;51.456;8.844;2022-09-29T07:00:10;6.35;;;5.40;;
23304;SDS011;11821;51.456;8.844;2022-09-29T07:02:37;10.00;;;7.25;;
23304;SDS011;11821;51.456;8.844;2022-09-29T07:05:03;9.05;;;5.95;;
23304;SDS011;11821;51.456;8.844;2022-09-29T07:07:29;6.63;;;5.97;;
23304;SDS011;11821;51.456;8.844;2022-09-29T07:09:55;21.60;;;9.70;;
23304;SDS011;11821;51.456;8.844;2022-09-29T07:12:22;62.75;;;24.88;;
23304;SDS011;11821;51.456;8.844;2022-09-29T07:14:49;12.27;;;7.63;;
23304;SDS011;11821;51.456;8.844;2022-09-29T07:17:15;9.60;;;7.13;;
23304;SDS011;11821;51.456;8.844;2022-09-29T07:19:42;6.78;;;6.10;;
23304;SDS011;11821;51.456;8.844;2022-09-29T07:22:08;13.48;;;6.07;;
23304;SDS011;11821;51.456;8.844;2022-09-29T07:24:34;8.98;;;5.95;;
23304;SDS011;11821;51.456;8.844;2022-09-29T07:27:01;13.65;;;7.45;;
23304;SDS011;11821;51.456;8.844;2022-09-29T07:29:27;7.47;;;6.05;;
23304;SDS011;11821;51.456;8.844;2022-09-29T07:31:57;7.55;;;5.63;;
23304;SDS011;11821;51.456;8.844;2022-09-29T07:34:24;7.25;;;5.85;;
23304;SDS011;11821;51.456;8.844;2022-09-29T07:36:50;9.20;;;6.95;;
23304;SDS011;11821;51.456;8.844;2022-09-29T07:39:18;6.43;;;5.82;;
23304;SDS011;11821;51.456;8.844;2022-09-29T07:41:45;9.35;;;6.50;;
23304;SDS011;11821;51.456;8.844;2022-09-29T07:44:11;9.50;;;6.50;;
23304;SDS011;11821;51.456;8.844;2022-09-29T07:46:38;6.93;;;6.28;;
23304;SDS011;11821;51.456;8.844;2022-09-29T07:49:04;6.50;;;5.90;;
23304;SDS011;11821;51.456;8.844;2022-09-29T07:51:30;9.07;;;6.47;;
23304;SDS011;11821;51.456;8.844;2022-09-29T07:54:03;7.38;;;5.18;;
23304;SDS011;11821;51.456;8.844;2022-09-29T07:56:30;8.25;;;5.90;;
23304;SDS011;11821;51.456;8.844;2022-09-29T07:58:57;6.45;;;5.85;;
23304;SDS011;11821;51.456;8.844;2022-09-29T08:01:23;8.02;;;7.22;;
23304;SDS011;11821;51.456;8.844;2022-09-29T08:03:51;10.93;;;7.53;;
23304;SDS011;11821;51.456;8.844;2022-09-29T08:06:21;6.80;;;6.13;;
23304;SDS011;11821;51.456;8.844;2022-09-29T08:08:50;3.92;;;3.53;;
23304;SDS011;11821;51.456;8.844;2022-09-29T08:11:17;6.00;;;5.40;;
23304;SDS011;11821;51.456;8.844;2022-09-29T08:13:45;7.22;;;6.38;;
23304;SDS011;11821;51.456;8.844;2022-09-29T08:16:13;7.40;;;6.68;;
23304;SDS011;11821;51.456;8.844;2022-09-29T08:18:40;7.13;;;5.93;;
23304;SDS011;11821;51.456;8.844;2022-09-29T08:21:07;7.60;;;5.50;;
23304;SDS011;11821;51.456;8.844;2022-09-29T08:23:35;6.10;;;5.57;;
23304;SDS011;11821;51.456;8.844;2022-09-29T08:26:10;6.88;;;5.90;;
23304;SDS011;11821;51.456;8.844;2022-09-29T08:28:39;6.22;;;5.63;;
23304;SDS011;11821;51.456;8.844;2022-09-29T08:31:06;6.45;;;5.20;;
23304;SDS011;11821;51.456;8.844;2022-09-29T08:36:04;7.07;;;5.32;;
23304;SDS011;11821;51.456;8.844;2022-09-29T08:38:42;8.90;;;6.30;;
23304;SDS011;11821;51.456;8.844;2022-09-29T08:46:53;10.02;;;6.60;;
23304;SDS011;11821;51.456;8.844;2022-09-29T08:49:27;7.65;;;5.97;;
23304;SDS011;11821;51.456;8.844;2022-09-29T08:52:03;5.97;;;4.95;;
23304;SDS011;11821;51.456;8.844;2022-09-29T08:54:41;6.88;;;6.18;;
23304;SDS011;11821;51.456;8.844;2022-09-29T08:57:13;14.75;;;6.38;;
23304;SDS011;11821;51.456;8.844;2022-09-29T09:00:02;8.63;;;7.07;;
23304;SDS011;11821;51.456;8.844;2022-09-29T09:15:26;7.55;;;6.18;;
23304;SDS011;11821;51.456;8.844;2022-09-29T09:18:10;5.80;;;5.10;;
23304;SDS011;11821;51.456;8.844;2022-09-29T09:20:43;6.30;;;5.80;;
23304;SDS011;11821;51.456;8.844;2022-09-29T09:26:03;5.80;;;5.30;;
23304;SDS011;11821;51.456;8.844;2022-09-29T09:28:36;6.82;;;5.32;;
23304;SDS011;11821;51.456;8.844;2022-09-29T09:31:10;6.15;;;4.97;;
23304;SDS011;11821;51.456;8.844;2022-09-29T09:39:19;7.03;;;3.92;;
23304;SDS011;11821;51.456;8.844;2022-09-29T09:41:50;5.65;;;3.60;;
23304;SDS011;11821;51.456;8.844;2022-09-29T09:44:23;4.30;;;3.80;;
23304;SDS011;11821;51.456;8.844;2022-09-29T09:46:59;4.50;;;4.10;;
23304;SDS011;11821;51.456;8.844;2022-09-29T09:49:34;4.60;;;3.63;;
23304;SDS011;11821;51.456;8.844;2022-09-29T09:55:02;4.95;;;4.50;;
23304;SDS011;11821;51.456;8.844;2022-09-29T10:00:22;4.00;;;3.70;;
23304;SDS011;11821;51.456;8.844;2022-09-29T10:02:54;4.40;;;4.03;;
23304;SDS011;11821;51.456;8.844;2022-09-29T10:05:40;4.18;;;3.88;;
23304;SDS011;11821;51.456;8.844;2022-09-29T10:10:56;4.05;;;3.72;;
23304;SDS011;11821;51.456;8.844;2022-09-29T10:13:24;4.65;;;3.28;;
23304;SDS011;11821;51.456;8.844;2022-09-29T10:16:00;3.08;;;2.80;;
23304;SDS011;11821;51.456;8.844;2022-09-29T10:21:19;4.95;;;3.10;;
23304;SDS011;11821;51.456;8.844;2022-09-29T10:23:54;4.45;;;3.08;;
23304;SDS011;11821;51.456;8.844;2022-09-29T10:26:25;4.18;;;3.33;;
23304;SDS011;11821;51.456;8.844;2022-09-29T10:31:58;3.13;;;2.75;;
23304;SDS011;11821;51.456;8.844;2022-09-29T10:34:37;3.25;;;3.03;;
23304;SDS011;11821;51.456;8.844;2022-09-29T10:37:17;4.00;;;3.70;;
23304;SDS011;11821;51.456;8.844;2022-09-29T10:42:39;3.35;;;3.05;;
23304;SDS011;11821;51.456;8.844;2022-09-29T10:45:12;3.83;;;3.10;;
23304;SDS011;11821;51.456;8.844;2022-09-29T10:47:41;3.20;;;2.90;;
23304;SDS011;11821;51.456;8.844;2022-09-29T10:52:55;3.92;;;2.95;;
23304;SDS011;11821;51.456;8.844;2022-09-29T10:55:28;2.97;;;2.78;;
23304;SDS011;11821;51.456;8.844;2022-09-29T10:57:57;3.35;;;2.75;;
23304;SDS011;11821;51.456;8.844;2022-09-29T11:00:34;4.53;;;3.35;;
23304;SDS011;11821;51.456;8.844;2022-09-29T11:03:24;4.47;;;2.90;;
23304;SDS011;11821;51.456;8.844;2022-09-29T11:05:53;2.83;;;2.55;;
23304;SDS011;11821;51.456;8.844;2022-09-29T11:08:24;2.40;;;2.00;;
23304;SDS011;11821;51.456;8.844;2022-09-29T11:11:02;3.00;;;2.05;;
23304;SDS011;11821;51.456;8.844;2022-09-29T11:16:04;1.70;;;1.05;;
23304;SDS011;11821;51.456;8.844;2022-09-29T11:18:38;1.80;;;1.65;;
23304;SDS011;11821;51.456;8.844;2022-09-29T11:34:50;1.33;;;1.17;;
23304;SDS011;11821;51.456;8.844;2022-09-29T11:37:27;3.70;;;0.93;;
23304;SDS011;11821;51.456;8.844;2022-09-29T11:40:16;1.33;;;0.98;;
23304;SDS011;11821;51.456;8.844;2022-09-29T11:45:40;1.63;;;0.95;;
23304;SDS011;11821;51.456;8.844;2022-09-29T11:51:12;1.30;;;0.82;;
23304;SDS011;11821;51.456;8.844;2022-09-29T12:03:26;2.85;;;0.77;;
23304;SDS011;11821;51.456;8.844;2022-09-29T12:08:52;2.42;;;1.00;;
23304;SDS011;11821;51.456;8.844;2022-09-29T12:17:01;1.15;;;0.90;;
23304;SDS011;11821;51.456;8.844;2022-09-29T12:19:39;0.77;;;0.77;;
23304;SDS011;11821;51.456;8.844;2022-09-29T12:22:08;1.48;;;0.73;;
23304;SDS011;11821;51.456;8.844;2022-09-29T12:24:41;1.42;;;0.85;;
23304;SDS011;11821;51.456;8.844;2022-09-29T12:27:15;1.05;;;0.80;;
23304;SDS011;11821;51.456;8.844;2022-09-29T12:29:57;2.45;;;2.08;;
23304;SDS011;11821;51.456;8.844;2022-09-29T12:35:30;1.52;;;0.95;;
23304;SDS011;11821;51.456;8.844;2022-09-29T12:40:31;1.92;;;1.20;;
23304;SDS011;11821;51.456;8.844;2022-09-29T12:51:43;1.05;;;0.80;;
23304;SDS011;11821;51.456;8.844;2022-09-29T12:56:58;2.42;;;0.88;;
23304;SDS011;11821;51.456;8.844;2022-09-29T13:02:32;1.33;;;0.80;;
23304;SDS011;11821;51.456;8.844;2022-09-29T13:05:17;2.83;;;0.90;;
23304;SDS011;11821;51.456;8.844;2022-09-29T13:10:56;2.83;;;1.00;;
23304;SDS011;11821;51.456;8.844;2022-09-29T13:16:37;2.03;;;1.10;;
23304;SDS011;11821;51.456;8.844;2022-09-29T13:27:30;3.28;;;0.85;;
23304;SDS011;11821;51.456;8.844;2022-09-29T13:30:05;1.80;;;1.17;;
23304;SDS011;11821;51.456;8.844;2022-09-29T13:32:38;1.65;;;1.10;;
23304;SDS011;11821;51.456;8.844;2022-09-29T13:35:22;1.60;;;1.10;;
23304;SDS011;11821;51.456;8.844;2022-09-29T13:37:50;1.63;;;0.90;;
23304;SDS011;11821;51.456;8.844;2022-09-29T13:40:25;1.67;;;1.08;;
23304;SDS011;11821;51.456;8.844;2022-09-29T13:42:54;1.20;;;1.10;;
23304;SDS011;11821;51.456;8.844;2022-09-29T13:47:52;1.27;;;1.00;;
23304;SDS011;11821;51.456;8.844;2022-09-29T13:55:48;1.13;;;0.80;;
23304;SDS011;11821;51.456;8.844;2022-09-29T14:01:04;4.82;;;2.50;;
23304;SDS011;11821;51.456;8.844;2022-09-29T14:03:41;6.20;;;3.70;;
23304;SDS011;11821;51.456;8.844;2022-09-29T14:06:13;3.65;;;2.15;;
23304;SDS011;11821;51.456;8.844;2022-09-29T14:11:33;5.78;;;1.80;;
23304;SDS011;11821;51.456;8.844;2022-09-29T14:14:08;1.73;;;1.58;;
23304;SDS011;11821;51.456;8.844;2022-09-29T14:22:48;2.20;;;1.80;;
23304;SDS011;11821;51.456;8.844;2022-09-29T14:28:18;4.32;;;2.22;;
23304;SDS011;11821;51.456;8.844;2022-09-29T14:33:01;5.22;;;4.47;;
23304;SDS011;11821;51.456;8.844;2022-09-29T14:35:51;2.83;;;2.20;;
23304;SDS011;11821;51.456;8.844;2022-09-29T14:40:55;3.33;;;2.05;;
23304;SDS011;11821;51.456;8.844;2022-09-29T14:43:37;2.10;;;1.90;;
23304;SDS011;11821;51.456;8.844;2022-09-29T15:00:27;4.75;;;2.80;;
23304;SDS011;11821;51.456;8.844;2022-09-29T15:03:36;5.20;;;3.08;;
23304;SDS011;11821;51.456;8.844;2022-09-29T15:08:40;3.63;;;2.37;;
23304;SDS011;11821;51.456;8.844;2022-09-29T15:11:28;6.63;;;2.97;;
23304;SDS011;11821;51.456;8.844;2022-09-29T15:13:59;2.63;;;2.30;;
23304;SDS011;11821;51.456;8.844;2022-09-29T15:27:16;4.43;;;2.53;;
23304;SDS011;11821;51.456;8.844;2022-09-29T15:29:52;3.28;;;2.70;;
23304;SDS011;11821;51.456;8.844;2022-09-29T15:32:24;2.92;;;2.63;;
23304;SDS011;11821;51.456;8.844;2022-09-29T15:34:53;5.00;;;2.90;;
23304;SDS011;11821;51.456;8.844;2022-09-29T15:37:53;3.88;;;3.13;;
23304;SDS011;11821;51.456;8.844;2022-09-29T15:40:21;5.00;;;2.75;;
23304;SDS011;11821;51.456;8.844;2022-09-29T15:42:49;2.63;;;2.30;;
23304;SDS011;11821;51.456;8.844;2022-09-29T15:45:19;4.80;;;2.55;;
23304;SDS011;11821;51.456;8.844;2022-09-29T15:48:04;5.43;;;2.97;;
23304;SDS011;11821;51.456;8.844;2022-09-29T15:50:33;4.30;;;3.90;;
23304;SDS011;11821;51.456;8.844;2022-09-29T15:53:07;3.42;;;2.70;;
23304;SDS011;11821;51.456;8.844;2022-09-29T15:55:35;3.38;;;3.10;;
23304;SDS011;11821;51.456;8.844;2022-09-29T15:58:02;2.95;;;2.65;;
23304;SDS011;11821;51.456;8.844;2022-09-29T16:01:12;3.40;;;2.50;;
23304;SDS011;11821;51.456;8.844;2022-09-29T16:08:48;6.07;;;4.55;;
23304;SDS011;11821;51.456;8.844;2022-09-29T16:11:29;8.48;;;6.45;;
23304;SDS011;11821;51.456;8.844;2022-09-29T16:13:58;3.33;;;2.45;;
23304;SDS011;11821;51.456;8.844;2022-09-29T16:16:50;2.15;;;2.00;;
23304;SDS011;11821;51.456;8.844;2022-09-29T16:21:58;1.90;;;1.80;;
23304;SDS011;11821;51.456;8.844;2022-09-29T16:24:30;2.00;;;1.77;;
23304;SDS011;11821;51.456;8.844;2022-09-29T16:27:00;2.95;;;2.33;;
23304;SDS011;11821;51.456;8.844;2022-09-29T16:29:28;3.40;;;2.00;;
23304;SDS011;11821;51.456;8.844;2022-09-29T16:31:55;3.60;;;2.67;;
23304;SDS011;11821;51.456;8.844;2022-09-29T16:34:24;3.03;;;2.00;;
23304;SDS011;11821;51.456;8.844;2022-09-29T16:39:22;2.05;;;1.88;;
23304;SDS011;11821;51.456;8.844;2022-09-29T16:41:54;4.65;;;3.30;;
23304;SDS011;11821;51.456;8.844;2022-09-29T16:44:26;2.55;;;2.10;;
23304;SDS011;11821;51.456;8.844;2022-09-29T16:52:33;6.32;;;5.00;;
23304;SDS011;11821;51.456;8.844;2022-09-29T16:55:17;11.95;;;6.18;;
23304;SDS011;11821;51.456;8.844;2022-09-29T16:57:54;12.10;;;5.78;;
23304;SDS011;11821;51.456;8.844;2022-09-29T17:00:24;16.35;;;9.25;;
23304;SDS011;11821;51.456;8.844;2022-09-29T17:02:51;17.13;;;8.35;;
23304;SDS011;11821;51.456;8.844;2022-09-29T17:05:25;11.35;;;7.63;;
23304;SDS011;11821;51.456;8.844;2022-09-29T17:07:59;9.05;;;5.45;;
23304;SDS011;11821;51.456;8.844;2022-09-29T17:10:27;6.95;;;3.60;;
23304;SDS011;11821;51.456;8.844;2022-09-29T17:12:53;11.90;;;4.22;;
23304;SDS011;11821;51.456;8.844;2022-09-29T17:15:20;9.30;;;6.28;;
23304;SDS011;11821;51.456;8.844;2022-09-29T17:17:47;12.38;;;7.22;;
23304;SDS011;11821;51.456;8.844;2022-09-29T17:20:16;12.90;;;7.57;;
23304;SDS011;11821;51.456;8.844;2022-09-29T17:22:45;11.15;;;7.15;;
23304;SDS011;11821;51.456;8.844;2022-09-29T17:25:12;9.20;;;6.68;;
23304;SDS011;11821;51.456;8.844;2022-09-29T17:27:38;8.43;;;6.63;;
23304;SDS011;11821;51.456;8.844;2022-09-29T17:30:25;10.02;;;6.35;;
23304;SDS011;11821;51.456;8.844;2022-09-29T17:32:54;7.22;;;5.97;;
23304;SDS011;11821;51.456;8.844;2022-09-29T17:35:26;7.45;;;4.72;;
23304;SDS011;11821;51.456;8.844;2022-09-29T17:37:54;7.07;;;5.72;;
23304;SDS011;11821;51.456;8.844;2022-09-29T17:42:52;7.93;;;6.05;;
23304;SDS011;11821;51.456;8.844;2022-09-29T17:45:20;13.77;;;7.85;;
23304;SDS011;11821;51.456;8.844;2022-09-29T17:47:46;8.35;;;5.60;;
23304;SDS011;11821;51.456;8.844;2022-09-29T17:50:19;9.63;;;6.63;;
23304;SDS011;11821;51.456;8.844;2022-09-29T17:52:48;9.75;;;6.40;;
23304;SDS011;11821;51.456;8.844;2022-09-29T17:55:15;13.57;;;8.38;;
23304;SDS011;11821;51.456;8.844;2022-09-29T17:57:42;7.53;;;6.18;;
23304;SDS011;11821;51.456;8.844;2022-09-29T18:00:19;7.45;;;5.85;;
23304;SDS011;11821;51.456;8.844;2022-09-29T18:03:06;8.05;;;7.25;;
23304;SDS011;11821;51.456;8.844;2022-09-29T18:05:40;13.27;;;8.65;;
23304;SDS011;11821;51.456;8.844;2022-09-29T18:08:09;9.90;;;8.40;;
23304;SDS011;11821;51.456;8.844;2022-09-29T18:10:52;8.38;;;7.45;;
23304;SDS011;11821;51.456;8.844;2022-09-29T18:13:21;7.70;;;6.18;;
23304;SDS011;11821;51.456;8.844;2022-09-29T18:15:48;14.25;;;12.10;;
23304;SDS011;11821;51.456;8.844;2022-09-29T18:18:15;9.85;;;8.40;;
23304;SDS011;11821;51.456;8.844;2022-09-29T18:20:44;10.18;;;8.40;;
23304;SDS011;11821;51.456;8.844;2022-09-29T18:23:12;11.23;;;8.40;;
23304;SDS011;11821;51.456;8.844;2022-09-29T18:25:42;8.65;;;7.88;;
23304;SDS011;11821;51.456;8.844;2022-09-29T18:28:10;9.57;;;8.68;;
23304;SDS011;11821;51.456;8.844;2022-09-29T18:30:38;7.00;;;5.63;;
23304;SDS011;11821;51.456;8.844;2022-09-29T18:33:05;5.90;;;4.90;;
23304;SDS011;11821;51.456;8.844;2022-09-29T18:35:39;6.88;;;5.00;;
23304;SDS011;11821;51.456;8.844;2022-09-29T18:38:08;9.63;;;4.75;;
23304;SDS011;11821;51.456;8.844;2022-09-29T18:40:35;7.95;;;6.90;;
23304;SDS011;11821;51.456;8.844;2022-09-29T18:43:03;10.48;;;7.10;;
23304;SDS011;11821;51.456;8.844;2022-09-29T18:45:33;9.10;;;7.78;;
23304;SDS011;11821;51.456;8.844;2022-09-29T18:48:02;8.15;;;7.35;;
23304;SDS011;11821;51.456;8.844;2022-09-29T18:50:34;8.95;;;7.63;;
23304;SDS011;11821;51.456;8.844;2022-09-29T18:53:04;12.40;;;7.63;;
23304;SDS011;11821;51.456;8.844;2022-09-29T18:55:30;7.45;;;6.78;;
23304;SDS011;11821;51.456;8.844;2022-09-29T18:57:57;12.15;;;7.15;;
23304;SDS011;11821;51.456;8.844;2022-09-29T19:00:28;18.55;;;9.50;;
23304;SDS011;11821;51.456;8.844;2022-09-29T19:02:56;18.35;;;9.23;;
23304;SDS011;11821;51.456;8.844;2022-09-29T19:05:27;7.55;;;5.70;;
23304;SDS011;11821;51.456;8.844;2022-09-29T19:07:55;14.65;;;8.02;;
23304;SDS011;11821;51.456;8.844;2022-09-29T19:10:24;11.68;;;7.40;;